Time;durP1;ratioP1;P1;durP2;ratioP2;P2;SDS_P1;SDS_P2;PMS_P1;PMS_P2;Temp;Humidity;BMP_temperature;BMP_pressure;BME280_temperature;BME280_humidity;BME280_pressure;Samples;Min_cycle;Max_cycle;Signal;HPM_P1;HPM_P2
2022/07/16 00:02:17;;;;;;;9.60;9.30;;;16.20;99.90;;;;;;5100894;28;20213;-81
2022/07/16 00:04:44;;;;;;;9.43;9.13;;;16.00;99.90;;;;;;5100394;28;20232;-80
2022/07/16 00:07:14;;;;;;;9.80;9.50;;;15.80;99.90;;;;;;5100554;28;20261;-81
2022/07/16 00:09:43;;;;;;;9.77;9.48;;;15.70;99.90;;;;;;5090904;28;20380;-80
2022/07/16 00:12:12;;;;;;;9.70;9.40;;;15.70;99.90;;;;;;5087128;28;20245;-81
2022/07/16 00:17:29;;;;;;;9.80;9.50;;;15.60;99.90;;;;;;5086583;28;20230;-81
2022/07/16 00:19:55;;;;;;;9.63;9.32;;;15.60;99.90;;;;;;5086156;28;20248;-81
2022/07/16 00:25:06;;;;;;;9.82;9.52;;;15.30;99.90;;;;;;5084752;28;20372;-81
2022/07/16 00:27:35;;;;;;;9.80;9.50;;;15.10;99.90;;;;;;5085599;28;20289;-81
2022/07/16 00:30:14;;;;;;;9.80;9.50;;;15.10;99.90;;;;;;5086185;28;20262;-80
2022/07/16 00:32:43;;;;;;;9.70;9.40;;;15.10;99.90;;;;;;5085793;28;20277;-81
2022/07/16 00:35:13;;;;;;;9.60;9.30;;;15.20;99.90;;;;;;5087426;28;20238;-81
2022/07/16 00:37:42;;;;;;;9.90;9.60;;;15.20;99.90;;;;;;5091989;28;20238;-80
2022/07/16 00:40:12;;;;;;;9.48;9.18;;;15.20;99.90;;;;;;5093267;28;20238;-81
2022/07/16 00:42:41;;;;;;;9.48;9.18;;;15.30;99.90;;;;;;5092861;28;20290;-80
2022/07/16 00:45:10;;;;;;;9.55;9.25;;;15.30;99.90;;;;;;5106854;22;20330;-86
2022/07/16 00:47:40;;;;;;;9.40;9.10;;;15.20;99.90;;;;;;5060953;28;20227;-86
2022/07/16 00:50:09;;;;;;;9.48;9.18;;;15.20;99.90;;;;;;5068388;28;20214;-86
2022/07/16 00:52:39;;;;;;;9.50;9.20;;;15.20;99.90;;;;;;5081107;28;20227;-86
2022/07/16 00:55:09;;;;;;;9.35;9.05;;;15.20;99.90;;;;;;5084203;27;20249;-86
2022/07/16 00:57:38;;;;;;;9.40;9.10;;;15.10;99.90;;;;;;5083345;28;20234;-87
2022/07/16 01:00:08;;;;;;;9.40;9.10;;;15.10;99.90;;;;;;5087151;28;20293;-87
2022/07/16 01:02:39;;;;;;;9.38;9.07;;;15.10;99.90;;;;;;5093433;28;20234;-86
2022/07/16 01:05:08;;;;;;;9.45;9.15;;;15.00;99.90;;;;;;5081384;28;20234;-87
2022/07/16 01:07:36;;;;;;;9.30;9.00;;;15.00;99.90;;;;;;5080493;28;20226;-87
2022/07/16 01:10:05;;;;;;;9.20;8.90;;;14.90;99.90;;;;;;5079895;28;20237;-87
2022/07/16 01:12:34;;;;;;;9.27;8.98;;;14.90;99.90;;;;;;5080924;28;20231;-87
2022/07/16 01:15:07;;;;;;;9.25;8.95;;;14.90;99.90;;;;;;5080707;28;20288;-87
2022/07/16 01:17:38;;;;;;;9.20;8.90;;;14.90;99.90;;;;;;5080604;28;20792;-86
2022/07/16 01:20:07;;;;;;;8.90;8.68;;;14.80;99.90;;;;;;5079756;28;20265;-86
2022/07/16 01:22:35;;;;;;;9.30;9.00;;;14.80;99.90;;;;;;5080096;28;20282;-87
2022/07/16 01:25:12;;;;;;;9.05;8.82;;;14.70;99.90;;;;;;5080440;28;20250;-87
2022/07/16 01:27:43;;;;;;;9.13;8.82;;;14.70;99.90;;;;;;5078953;28;20226;-87
2022/07/16 01:30:14;;;;;;;9.27;8.98;;;14.60;99.90;;;;;;5080583;28;20234;-87
2022/07/16 01:32:42;;;;;;;9.20;8.90;;;14.60;99.90;;;;;;5079891;28;20237;-86
2022/07/16 01:35:10;;;;;;;9.30;9.00;;;14.50;99.90;;;;;;5081482;28;20226;-87
2022/07/16 01:37:39;;;;;;;8.98;8.75;;;14.50;99.90;;;;;;5079796;28;20226;-87
2022/07/16 01:40:13;;;;;;;9.38;9.07;;;14.40;99.90;;;;;;5078750;28;20279;-87
2022/07/16 01:42:47;;;;;;;9.00;8.80;;;14.40;99.90;;;;;;5080112;28;20230;-87
2022/07/16 01:45:17;;;;;;;9.30;9.00;;;14.30;99.90;;;;;;5078084;28;20237;-87
2022/07/16 01:47:46;;;;;;;9.40;9.10;;;14.30;99.90;;;;;;5078936;28;20222;-87
2022/07/16 01:50:15;;;;;;;9.00;8.80;;;14.20;99.90;;;;;;5079652;28;20272;-87
2022/07/16 01:52:45;;;;;;;8.90;8.70;;;14.10;99.90;;;;;;5079414;28;20234;-87
2022/07/16 01:55:16;;;;;;;9.00;8.80;;;14.00;99.90;;;;;;5079608;28;20361;-87
2022/07/16 01:57:44;;;;;;;9.00;8.80;;;13.90;99.90;;;;;;5079179;28;20234;-87
2022/07/16 02:00:13;;;;;;;8.70;8.50;;;13.80;99.90;;;;;;5079373;28;20284;-87
2022/07/16 02:02:42;;;;;;;8.87;8.67;;;13.70;99.90;;;;;;5079612;28;20273;-87
2022/07/16 02:05:12;;;;;;;9.30;9.00;;;13.60;99.90;;;;;;5079236;28;20259;-87
2022/07/16 02:07:41;;;;;;;9.30;9.00;;;13.50;99.90;;;;;;5078965;28;20238;-87
2022/07/16 02:10:11;;;;;;;9.00;8.80;;;13.40;99.90;;;;;;5080237;28;20222;-87
2022/07/16 02:12:42;;;;;;;9.20;8.90;;;13.40;99.90;;;;;;5079826;28;20317;-87
2022/07/16 02:15:11;;;;;;;8.70;8.50;;;13.30;99.90;;;;;;5079462;28;20231;-87
2022/07/16 02:17:39;;;;;;;8.80;8.60;;;13.20;99.90;;;;;;5097394;28;20202;-88
2022/07/16 02:20:10;;;;;;;8.87;8.67;;;13.10;99.90;;;;;;5094134;27;20234;-87
2022/07/16 02:22:39;;;;;;;8.93;8.73;;;13.00;99.90;;;;;;5081181;28;20234;-87
2022/07/16 02:28:12;;;;;;;8.70;8.50;;;12.90;99.90;;;;;;5079024;28;20227;-86
2022/07/16 02:31:28;;;;;;;8.97;8.77;;;12.80;99.90;;;;;;5079126;28;20234;-87
2022/07/16 02:33:56;;;;;;;9.10;8.80;;;12.70;99.90;;;;;;5078522;28;20236;-87
2022/07/16 02:36:24;;;;;;;9.30;9.00;;;12.60;99.90;;;;;;5078441;28;20240;-87
2022/07/16 02:38:54;;;;;;;9.17;8.87;;;12.50;99.90;;;;;;5078655;28;20234;-87
2022/07/16 02:41:23;;;;;;;9.00;8.80;;;12.50;99.90;;;;;;5078171;28;20252;-87
2022/07/16 02:43:55;;;;;;;8.90;8.70;;;12.50;99.90;;;;;;5078731;28;20258;-89
2022/07/16 02:46:23;;;;;;;8.80;8.60;;;12.50;99.90;;;;;;5077323;28;20234;-87
2022/07/16 02:48:52;;;;;;;8.97;8.77;;;12.50;99.90;;;;;;5078175;28;20308;-87
2022/07/16 02:51:22;;;;;;;8.80;8.60;;;12.50;99.90;;;;;;5078408;28;20263;-88
2022/07/16 02:53:50;;;;;;;8.80;8.60;;;12.50;99.90;;;;;;5078240;28;20271;-87
2022/07/16 02:56:20;;;;;;;8.87;8.67;;;12.50;99.90;;;;;;5077884;28;20238;-87
2022/07/16 02:58:49;;;;;;;9.20;8.90;;;12.50;99.90;;;;;;5078288;28;20230;-87
2022/07/16 03:01:30;;;;;;;9.40;9.10;;;12.40;99.90;;;;;;5079698;28;20237;-87
2022/07/16 03:03:58;;;;;;;9.40;9.10;;;12.40;99.90;;;;;;5079254;28;20317;-87
2022/07/16 03:06:28;;;;;;;9.40;9.10;;;12.30;99.90;;;;;;5078918;28;20222;-87
2022/07/16 03:09:20;;;;;;;;;;;;;;;;;;;;;
2022/07/16 03:11:56;;;;;;;9.50;9.20;;;12.30;99.90;;;;;;5096946;28;20325;-88
2022/07/16 03:17:30;;;;;;;9.50;9.20;;;12.20;99.90;;;;;;5096675;27;20217;-87
2022/07/16 03:20:40;;;;;;;10.00;9.70;;;12.20;99.90;;;;;;5092935;28;20227;-87
2022/07/16 03:23:11;;;;;;;9.63;9.33;;;12.30;99.90;;;;;;5081977;28;20241;-87
2022/07/16 03:25:41;;;;;;;9.53;9.23;;;12.30;99.90;;;;;;5079449;28;20298;-87
2022/07/16 03:28:09;;;;;;;9.57;9.27;;;12.30;99.90;;;;;;5078585;28;20250;-87
2022/07/16 03:30:39;;;;;;;9.70;9.40;;;12.30;99.90;;;;;;5082170;28;20211;-88
2022/07/16 03:35:55;;;;;;;9.80;9.50;;;12.20;99.90;;;;;;5080639;28;20230;-87
2022/07/16 03:41:12;;;;;;;9.67;9.37;;;12.20;99.90;;;;;;5078619;28;20214;-87
2022/07/16 03:44:12;;;;;;;9.40;9.10;;;12.20;99.90;;;;;;5077401;28;20321;-87
2022/07/16 03:46:39;;;;;;;9.70;9.40;;;12.20;99.90;;;;;;5074321;28;21085;-87
2022/07/16 03:49:09;;;;;;;9.70;9.40;;;12.20;99.90;;;;;;5080552;28;20245;-88
2022/07/16 03:51:37;;;;;;;9.40;9.10;;;12.20;99.90;;;;;;5080334;28;20289;-87
2022/07/16 03:54:06;;;;;;;9.63;9.33;;;12.20;99.90;;;;;;5080651;28;20234;-87
2022/07/16 03:56:35;;;;;;;9.70;9.40;;;12.20;99.90;;;;;;5080301;28;20226;-87
2022/07/16 03:59:04;;;;;;;9.50;9.20;;;12.20;99.90;;;;;;5080040;28;20269;-87
2022/07/16 04:01:33;;;;;;;9.60;9.30;;;12.20;99.90;;;;;;5080263;28;20317;-87
2022/07/16 04:04:03;;;;;;;9.57;9.27;;;12.20;99.90;;;;;;5081196;28;20325;-87
2022/07/16 04:06:41;;;;;;;9.70;9.40;;;12.10;99.90;;;;;;5079360;28;20237;-87
2022/07/16 04:09:10;;;;;;;9.70;9.40;;;12.10;99.90;;;;;;5080536;28;20234;-87
2022/07/16 04:11:50;;;;;;;9.70;9.40;;;12.10;99.90;;;;;;5079432;28;20233;-87
2022/07/16 04:14:21;;;;;;;9.73;9.43;;;12.10;99.90;;;;;;5079950;28;20234;-87
2022/07/16 04:16:49;;;;;;;9.57;9.27;;;12.10;99.90;;;;;;5080159;28;20238;-87
2022/07/16 04:19:19;;;;;;;9.50;9.20;;;12.10;99.90;;;;;;5080387;28;20229;-87
2022/07/16 04:21:49;;;;;;;9.67;9.37;;;12.20;99.90;;;;;;5080580;28;20253;-87
2022/07/16 04:24:17;;;;;;;9.73;9.43;;;12.20;99.90;;;;;;5079847;28;20345;-87
2022/07/16 04:26:45;;;;;;;9.50;9.20;;;12.20;99.90;;;;;;5079628;28;20290;-87
2022/07/16 04:29:15;;;;;;;9.50;9.20;;;12.20;99.90;;;;;;5080491;28;20263;-87
2022/07/16 04:31:44;;;;;;;9.33;9.03;;;12.30;99.90;;;;;;5080054;28;20230;-87
2022/07/16 04:34:14;;;;;;;9.33;9.03;;;12.30;99.90;;;;;;5079538;28;20226;-88
2022/07/16 04:36:42;;;;;;;9.30;9.00;;;12.30;99.90;;;;;;5079014;28;20265;-87
2022/07/16 04:39:30;;;;;;;9.40;9.10;;;12.40;99.90;;;;;;5079903;28;20233;-87
2022/07/16 04:42:00;;;;;;;9.47;9.17;;;12.40;99.90;;;;;;5080443;28;20269;-86
2022/07/16 04:44:29;;;;;;;9.63;9.33;;;12.40;99.90;;;;;;5079568;28;20265;-87
2022/07/16 04:46:59;;;;;;;9.53;9.23;;;12.50;99.90;;;;;;5078761;28;20308;-86
2022/07/16 04:49:28;;;;;;;9.80;9.50;;;12.50;99.90;;;;;;5079230;28;20325;-87
2022/07/16 04:51:57;;;;;;;9.90;9.60;;;12.50;99.90;;;;;;5079720;28;20230;-87
2022/07/16 04:54:39;;;;;;;9.90;9.60;;;12.60;99.90;;;;;;5079516;28;20325;-88
2022/07/16 04:57:07;;;;;;;9.50;9.20;;;12.70;99.90;;;;;;5079924;28;20307;-87
2022/07/16 04:59:35;;;;;;;9.67;9.37;;;12.80;99.90;;;;;;5079924;28;20326;-88
2022/07/16 05:04:44;;;;;;;9.90;9.60;;;13.00;99.90;;;;;;5080547;28;20245;-86
2022/07/16 05:07:12;;;;;;;9.87;9.57;;;13.00;99.90;;;;;;5080608;28;20234;-87
2022/07/16 05:09:47;;;;;;;9.80;9.50;;;13.20;99.90;;;;;;5081839;28;20218;-87
2022/07/16 05:15:00;;;;;;;9.90;9.60;;;13.30;99.90;;;;;;5100945;27;20222;-87
2022/07/16 05:17:30;;;;;;;10.20;9.90;;;13.40;99.90;;;;;;5101571;27;20245;-88
2022/07/16 05:19:59;;;;;;;10.17;9.87;;;13.40;99.90;;;;;;5100982;27;20234;-87
2022/07/16 05:22:28;;;;;;;10.30;10.00;;;13.50;99.90;;;;;;5101616;27;20218;-87
2022/07/16 05:25:06;;;;;;;9.80;9.50;;;13.60;99.90;;;;;;5100237;27;20226;-87
2022/07/16 05:27:35;;;;;;;10.17;9.87;;;13.70;99.90;;;;;;5100042;28;20790;-87
2022/07/16 05:30:05;;;;;;;10.20;9.90;;;13.80;99.90;;;;;;5099321;27;20210;-87
2022/07/16 05:32:35;;;;;;;9.93;9.63;;;13.90;99.90;;;;;;5095457;28;20218;-87
2022/07/16 05:35:03;;;;;;;10.07;9.77;;;14.10;99.90;;;;;;5083583;28;20329;-88
2022/07/16 05:37:33;;;;;;;10.30;10.00;;;14.20;99.90;;;;;;5081566;28;20336;-87
2022/07/16 05:40:10;;;;;;;10.32;10.02;;;14.30;99.90;;;;;;5081209;28;20273;-87
2022/07/16 05:42:42;;;;;;;10.20;9.90;;;14.50;99.90;;;;;;5078843;28;20225;-86
2022/07/16 05:45:11;;;;;;;10.10;9.80;;;14.50;99.90;;;;;;5082194;28;20306;-86
2022/07/16 05:47:40;;;;;;;10.27;9.98;;;14.60;99.90;;;;;;5093340;28;20238;-87
2022/07/16 05:50:10;;;;;;;10.40;10.10;;;14.60;99.90;;;;;;5082750;28;20265;-86
2022/07/16 05:52:38;;;;;;;10.13;9.82;;;14.70;99.90;;;;;;5081119;28;20210;-87
2022/07/16 05:55:20;;;;;;;10.30;10.00;;;14.80;99.90;;;;;;5081861;28;20269;-88
2022/07/16 05:57:48;;;;;;;10.35;10.05;;;15.00;99.90;;;;;;5080384;28;20261;-87
2022/07/16 06:00:16;;;;;;;10.13;9.82;;;15.10;99.90;;;;;;5081366;28;20242;-87
2022/07/16 06:02:46;;;;;;;10.02;9.73;;;15.30;99.90;;;;;;5082224;28;20296;-88
2022/07/16 06:05:15;;;;;;;10.10;9.80;;;15.40;99.90;;;;;;5078443;28;20257;-87
2022/07/16 06:07:44;;;;;;;10.40;10.10;;;15.50;99.90;;;;;;5080083;28;20234;-88
2022/07/16 06:10:16;;;;;;;10.25;9.95;;;15.60;99.90;;;;;;5079383;28;20222;-87
2022/07/16 06:12:44;;;;;;;10.50;10.20;;;15.80;99.90;;;;;;5080014;28;21076;-88
2022/07/16 06:15:13;;;;;;;10.13;9.82;;;15.90;99.90;;;;;;5079184;28;20257;-87
2022/07/16 06:17:41;;;;;;;10.30;10.00;;;16.00;99.90;;;;;;5079013;28;20329;-86
2022/07/16 06:20:11;;;;;;;10.38;10.07;;;16.10;99.90;;;;;;5080488;28;20230;-87
2022/07/16 06:22:42;;;;;;;10.40;10.10;;;16.20;99.90;;;;;;5085951;28;20210;-87
2022/07/16 06:25:10;;;;;;;10.43;10.13;;;16.30;99.90;;;;;;5083084;28;20238;-87
2022/07/16 06:30:26;;;;;;;10.48;10.18;;;16.60;99.90;;;;;;5078395;28;20245;-87
2022/07/16 06:32:56;;;;;;;10.40;10.10;;;16.70;99.90;;;;;;5077963;28;20288;-87
2022/07/16 06:35:25;;;;;;;10.40;10.10;;;16.80;99.90;;;;;;5078033;28;20333;-87
2022/07/16 06:37:55;;;;;;;10.40;10.10;;;16.70;99.90;;;;;;5078190;28;20258;-87
2022/07/16 06:40:24;;;;;;;10.65;10.35;;;16.80;99.90;;;;;;5077859;28;20242;-87
2022/07/16 06:43:05;;;;;;;10.30;10.00;;;17.00;99.90;;;;;;5078159;28;20257;-87
2022/07/16 06:45:33;;;;;;;10.60;10.30;;;17.10;99.90;;;;;;5098510;22;20234;-80
2022/07/16 06:48:00;;;;;;;10.50;10.20;;;17.30;99.90;;;;;;5067503;28;20298;-80
2022/07/16 06:50:32;;;;;;;10.25;9.95;;;17.50;99.90;;;;;;5066063;28;20231;-80
2022/07/16 06:53:01;;;;;;;10.65;10.35;;;17.70;99.90;;;;;;5070266;28;20213;-80
2022/07/16 06:55:30;;;;;;;10.50;10.20;;;17.80;99.90;;;;;;5069827;28;20238;-80
2022/07/16 06:58:11;;;;;;;10.60;10.30;;;18.00;99.90;;;;;;5068147;28;20245;-81
2022/07/16 07:00:39;;;;;;;10.57;10.27;;;18.10;99.90;;;;;;5066843;28;20269;-81
2022/07/16 07:03:07;;;;;;;10.60;10.30;;;18.20;99.90;;;;;;5067360;28;20226;-81
2022/07/16 07:05:36;;;;;;;10.40;10.10;;;18.30;99.90;;;;;;5066143;28;20235;-81
2022/07/16 07:08:07;;;;;;;10.60;10.30;;;18.40;99.90;;;;;;5065710;28;20258;-81
2022/07/16 07:10:36;;;;;;;10.27;9.98;;;18.50;99.90;;;;;;5066239;28;20239;-81
2022/07/16 07:13:15;;;;;;;10.40;10.10;;;18.60;99.90;;;;;;5066664;28;20230;-81
2022/07/16 07:15:45;;;;;;;10.52;10.23;;;18.70;99.90;;;;;;5066351;28;20250;-81
2022/07/16 07:18:15;;;;;;;10.43;10.13;;;19.00;99.90;;;;;;5066389;28;20226;-81
2022/07/16 07:20:43;;;;;;;10.30;10.00;;;19.10;99.90;;;;;;5069578;28;20230;-80
2022/07/16 07:23:13;;;;;;;10.40;10.10;;;19.20;99.90;;;;;;5070068;28;20253;-80
2022/07/16 07:25:43;;;;;;;10.25;9.95;;;19.20;99.90;;;;;;5069473;28;20231;-81
2022/07/16 07:28:15;;;;;;;10.25;9.95;;;19.30;99.90;;;;;;5069533;28;20231;-81
2022/07/16 07:30:42;;;;;;;10.35;10.05;;;19.40;99.90;;;;;;5069746;28;20237;-80
2022/07/16 07:33:11;;;;;;;10.30;10.00;;;19.50;99.90;;;;;;5070261;28;20372;-81
2022/07/16 07:35:40;;;;;;;10.00;9.70;;;19.50;99.90;;;;;;5069924;28;20261;-81
2022/07/16 07:38:09;;;;;;;10.13;9.82;;;19.50;99.90;;;;;;5069278;28;20235;-81
2022/07/16 07:40:39;;;;;;;10.20;9.90;;;19.60;99.90;;;;;;5070377;28;20294;-81
2022/07/16 07:43:08;;;;;;;10.18;9.88;;;19.70;99.90;;;;;;5070062;28;20281;-79
2022/07/16 07:45:46;;;;;;;10.20;9.90;;;19.70;99.90;;;;;;5069962;28;20397;-81
2022/07/16 07:48:16;;;;;;;10.30;10.00;;;19.90;99.90;;;;;;5071674;28;20297;-78
2022/07/16 07:50:45;;;;;;;10.60;10.30;;;20.00;99.90;;;;;;5075062;28;20222;-80
2022/07/16 07:53:15;;;;;;;10.77;10.48;;;20.10;99.90;;;;;;5075207;28;20219;-78
2022/07/16 07:55:44;;;;;;;10.48;10.18;;;20.00;99.90;;;;;;5073713;28;20250;-80
2022/07/16 07:58:14;;;;;;;10.50;10.20;;;20.20;99.90;;;;;;5071476;28;20239;-81
2022/07/16 08:03:30;;;;;;;10.20;9.90;;;20.30;99.90;;;;;;5069916;28;20242;-81
2022/07/16 08:06:00;;;;;;;10.20;9.90;;;20.30;99.90;;;;;;5070216;28;20324;-81
2022/07/16 08:08:29;;;;;;;10.27;9.98;;;20.30;99.90;;;;;;5069094;28;20273;-81
2022/07/16 08:10:59;;;;;;;10.32;10.02;;;20.40;99.90;;;;;;5068539;28;20290;-81
2022/07/16 08:13:28;;;;;;;10.20;9.90;;;20.60;99.90;;;;;;5068905;28;20227;-81
2022/07/16 08:18:44;;;;;;;9.90;9.60;;;20.90;99.90;;;;;;5067889;28;20223;-81
2022/07/16 08:21:14;;;;;;;10.05;9.75;;;20.90;99.90;;;;;;5067003;28;20254;-81
2022/07/16 08:26:30;;;;;;;9.90;9.60;;;20.90;99.90;;;;;;5068099;28;20227;-81
2022/07/16 08:29:00;;;;;;;9.90;9.60;;;21.00;99.90;;;;;;5067621;28;20289;-81
2022/07/16 08:34:16;;;;;;;10.15;9.85;;;21.40;99.90;;;;;;5068113;28;20226;-80
2022/07/16 08:36:46;;;;;;;10.15;9.85;;;21.60;99.90;;;;;;5068250;28;20318;-81
2022/07/16 08:39:15;;;;;;;10.30;10.00;;;21.80;99.90;;;;;;5067367;28;20290;-80
2022/07/16 08:41:45;;;;;;;9.90;9.60;;;21.90;99.90;;;;;;5066399;28;20244;-80
2022/07/16 08:44:14;;;;;;;9.90;9.60;;;21.80;99.90;;;;;;5066090;28;20310;-80
2022/07/16 08:46:53;;;;;;;10.10;9.80;;;21.80;99.90;;;;;;5065361;28;20289;-80
2022/07/16 08:49:22;;;;;;;10.23;9.93;;;21.90;99.90;;;;;;5065812;28;20246;-80
2022/07/16 08:51:52;;;;;;;9.90;9.60;;;21.70;99.90;;;;;;5066444;28;20227;-81
2022/07/16 08:54:21;;;;;;;10.00;9.70;;;21.60;99.90;;;;;;5065711;28;20223;-82
2022/07/16 08:56:51;;;;;;;9.98;9.68;;;21.80;99.90;;;;;;5065361;28;20265;-81
2022/07/16 08:59:20;;;;;;;9.68;9.38;;;22.00;99.90;;;;;;5065268;28;20219;-82
2022/07/16 09:01:51;;;;;;;9.65;9.35;;;22.20;99.90;;;;;;5064975;28;20227;-80
2022/07/16 09:04:19;;;;;;;9.77;9.48;;;22.30;99.90;;;;;;5065028;28;20253;-82
2022/07/16 09:06:49;;;;;;;10.10;9.80;;;22.30;99.90;;;;;;5065495;28;20231;-81
2022/07/16 09:09:19;;;;;;;10.10;9.80;;;22.40;99.90;;;;;;5065650;28;20246;-82
2022/07/16 09:11:47;;;;;;;10.05;9.75;;;22.40;99.90;;;;;;5067048;28;20227;-79
2022/07/16 09:14:18;;;;;;;10.20;9.90;;;22.80;99.90;;;;;;5066075;28;20247;-80
2022/07/16 09:19:35;;;;;;;9.90;9.60;;;23.00;99.90;;;;;;5066546;28;20313;-80
2022/07/16 09:22:06;;;;;;;9.80;9.50;;;23.10;99.90;;;;;;5064790;28;20364;-80
2022/07/16 09:24:43;;;;;;;10.10;9.80;;;22.90;99.90;;;;;;5065137;28;20278;-80
2022/07/16 09:27:14;;;;;;;10.20;9.90;;;22.80;99.90;;;;;;5064849;28;20242;-81
2022/07/16 09:29:48;;;;;;;10.20;9.90;;;23.10;99.90;;;;;;5065969;28;20265;-81
2022/07/16 09:32:29;;;;;;;10.10;9.80;;;23.30;99.90;;;;;;5064907;28;20294;-81
2022/07/16 09:35:05;;;;;;;10.13;9.82;;;23.40;99.90;;;;;;5065347;28;20241;-80
2022/07/16 09:37:53;;;;;;;10.10;9.80;;;23.60;99.90;;;;;;5066135;28;20257;-80
2022/07/16 09:40:33;;;;;;;10.07;9.77;;;23.90;99.90;;;;;;5065401;28;20280;-80
2022/07/16 09:43:01;;;;;;;10.32;10.02;;;24.10;99.90;;;;;;5063980;28;20234;-80
2022/07/16 09:45:30;;;;;;;10.10;9.80;;;23.90;99.90;;;;;;5064617;28;20258;-80
2022/07/16 09:48:19;;;;;;;10.20;9.90;;;23.60;99.90;;;;;;5065590;28;20239;-81
2022/07/16 09:50:47;;;;;;;10.10;9.80;;;23.30;99.90;;;;;;5064646;28;20234;-81
2022/07/16 09:53:16;;;;;;;10.00;9.70;;;23.50;99.90;;;;;;5064565;28;20238;-81
2022/07/16 09:56:04;;;;;;;10.00;9.70;;;23.80;99.90;;;;;;5063891;28;20215;-81
2022/07/16 09:58:33;;;;;;;9.80;9.50;;;24.00;99.90;;;;;;5064809;28;20227;-81
2022/07/16 10:01:02;;;;;;;9.82;9.52;;;23.80;99.90;;;;;;5064345;28;20300;-82
2022/07/16 10:03:40;;;;;;;9.90;9.60;;;24.00;99.90;;;;;;5065487;28;20235;-81
2022/07/16 10:06:10;;;;;;;9.93;9.63;;;24.40;99.90;;;;;;5064237;28;20254;-81
2022/07/16 10:08:39;;;;;;;10.10;9.80;;;24.70;99.90;;;;;;5065455;28;20231;-82
2022/07/16 10:11:10;;;;;;;10.35;10.05;;;25.10;99.90;;;;;;5067259;28;20246;-81
2022/07/16 10:13:41;;;;;;;10.30;10.00;;;24.90;99.90;;;;;;5064924;28;20698;-81
2022/07/16 10:16:09;;;;;;;10.40;10.10;;;25.00;99.90;;;;;;5064378;28;20230;-81
2022/07/16 10:18:46;;;;;;;10.80;10.50;;;25.10;99.90;;;;;;5065083;28;20317;-81
2022/07/16 10:21:16;;;;;;;10.52;10.23;;;25.10;99.90;;;;;;5066237;28;20269;-81
2022/07/16 10:23:47;;;;;;;10.55;10.25;;;25.30;99.90;;;;;;5067217;28;20235;-82
2022/07/16 10:26:23;;;;;;;10.70;10.40;;;25.20;99.90;;;;;;5063909;28;20261;-81
2022/07/16 10:29:13;;;;;;;10.70;10.40;;;25.30;99.90;;;;;;5065546;28;20230;-82
2022/07/16 10:32:27;;;;;;;10.50;10.20;;;25.70;99.90;;;;;;5064284;28;20238;-82
2022/07/16 10:34:47;;;;;;;10.50;10.20;;;26.30;99.90;;;;;;5064425;28;20286;-82
2022/07/16 10:37:33;;;;;;;10.30;10.00;;;26.00;99.90;;;;;;5063008;28;20258;-82
2022/07/16 10:40:12;;;;;;;10.48;10.18;;;25.60;99.90;;;;;;5064804;28;20226;-82
2022/07/16 10:42:40;;;;;;;10.00;9.70;;;26.00;99.90;;;;;;5064425;28;20257;-81
2022/07/16 10:45:09;;;;;;;10.48;10.18;;;25.10;99.90;;;;;;5063876;28;20223;-82
2022/07/16 10:47:50;;;;;;;10.50;10.20;;;25.00;99.90;;;;;;5073420;28;20247;-81
2022/07/16 10:51:10;;;;;;;10.38;10.07;;;24.70;99.90;;;;;;5075367;28;20239;-81
2022/07/16 10:54:57;;;;;;;10.35;10.05;;;24.40;99.90;;;;;;5076327;28;20238;-82
2022/07/16 10:57:46;;;;;;;10.40;10.10;;;24.30;99.90;;;;;;5074197;28;20269;-81
2022/07/16 11:00:14;;;;;;;10.25;9.95;;;24.50;99.90;;;;;;5069268;28;20214;-82
2022/07/16 11:02:44;;;;;;;10.30;10.00;;;24.90;99.90;;;;;;5067056;28;20258;-81
2022/07/16 11:05:13;;;;;;;10.18;9.88;;;25.10;99.90;;;;;;5064846;28;20261;-81
2022/07/16 11:07:43;;;;;;;10.30;10.00;;;25.50;99.90;;;;;;5064929;28;20287;-82
2022/07/16 11:10:13;;;;;;;10.20;9.90;;;25.50;99.90;;;;;;5064560;28;20227;-82
2022/07/16 11:15:33;;;;;;;10.48;10.18;;;24.90;99.90;;;;;;5152103;27;1448991;-81
2022/07/16 11:18:00;;;;;;;10.55;10.25;;;24.60;99.90;;;;;;5163265;27;20224;-80
2022/07/16 11:23:36;;;;;;;10.70;10.40;;;24.20;99.90;;;;;;5161906;27;20218;-81
2022/07/16 11:26:04;;;;;;;10.65;10.35;;;23.90;99.90;;;;;;5162883;27;20233;-81
2022/07/16 11:28:51;;;;;;;10.85;10.55;;;24.30;99.90;;;;;;5162374;27;20220;-81
2022/07/16 11:31:28;;;;;;;10.70;10.40;;;24.70;99.90;;;;;;5162207;27;20231;-80
2022/07/16 11:33:59;;;;;;;10.90;10.60;;;25.00;99.90;;;;;;5163623;27;20215;-81
2022/07/16 11:36:29;;;;;;;10.80;10.50;;;25.30;99.90;;;;;;5162397;27;20294;-81
2022/07/16 11:38:58;;;;;;;10.35;10.05;;;25.60;99.90;;;;;;5162674;27;20254;-81
2022/07/16 11:41:26;;;;;;;10.65;10.35;;;26.00;99.90;;;;;;5162503;27;20228;-81
2022/07/16 11:43:56;;;;;;;10.75;10.45;;;26.40;99.90;;;;;;5161719;27;20242;-81
2022/07/16 11:46:54;;;;;;;10.70;10.40;;;26.90;99.90;;;;;;5161470;27;20231;-80
2022/07/16 11:49:30;;;;;;;10.70;10.40;;;27.10;99.90;;;;;;5162653;27;20238;-80
2022/07/16 11:52:02;;;;;;;10.38;10.07;;;26.30;99.90;;;;;;5160382;27;20282;-81
2022/07/16 11:54:31;;;;;;;10.70;10.40;;;26.00;99.90;;;;;;5162153;27;20231;-81
2022/07/16 11:56:59;;;;;;;10.65;10.35;;;25.70;99.90;;;;;;5161533;27;20242;-81
2022/07/16 11:59:29;;;;;;;10.65;10.35;;;25.60;99.90;;;;;;5162112;27;20254;-81
2022/07/16 12:02:22;;;;;;;10.57;10.27;;;25.70;99.90;;;;;;5165753;27;20253;-81
2022/07/16 12:04:53;;;;;;;10.52;10.23;;;25.40;99.90;;;;;;5167532;27;20283;-81
2022/07/16 12:07:33;;;;;;;10.52;10.23;;;25.50;99.90;;;;;;5167344;27;20238;-81
2022/07/16 12:10:08;;;;;;;10.57;10.27;;;25.60;99.90;;;;;;5164212;27;20223;-80
2022/07/16 12:12:40;;;;;;;10.70;10.40;;;25.40;99.90;;;;;;5163770;27;20259;-81
2022/07/16 12:18:14;;;;;;;10.93;10.63;;;25.80;99.90;;;;;;5161714;27;20250;-81
2022/07/16 12:20:42;;;;;;;10.50;10.20;;;25.60;99.90;;;;;;5162769;27;20326;-80
2022/07/16 12:23:11;;;;;;;10.68;10.38;;;25.20;99.90;;;;;;5161974;27;20249;-81
2022/07/16 12:25:41;;;;;;;10.65;10.35;;;25.30;99.90;;;;;;5154547;27;20216;-82
2022/07/16 12:28:10;;;;;;;10.80;10.50;;;25.40;99.90;;;;;;5148138;27;20292;-80
2022/07/16 12:30:40;;;;;;;10.85;10.40;;;25.80;99.90;;;;;;5148003;27;20374;-81
2022/07/16 12:33:36;;;;;;;10.55;10.25;;;26.30;99.90;;;;;;5149344;27;20239;-79
2022/07/16 12:36:06;;;;;;;10.50;10.20;;;26.10;99.90;;;;;;5148184;27;20324;-81
2022/07/16 12:38:52;;;;;;;10.60;10.30;;;25.50;99.90;;;;;;5148446;27;20227;-81
2022/07/16 12:41:23;;;;;;;10.50;10.20;;;25.40;99.90;;;;;;5147877;27;20224;-81
2022/07/16 12:43:54;;;;;;;10.48;10.18;;;25.90;99.90;;;;;;5148109;27;20297;-81
2022/07/16 12:46:23;;;;;;;10.55;10.25;;;26.60;99.90;;;;;;5148853;22;20245;-78
2022/07/16 12:48:56;;;;;;;10.60;10.30;;;27.30;99.90;;;;;;5098890;28;20336;-78
2022/07/16 12:51:28;;;;;;;10.60;10.30;;;27.50;99.90;;;;;;5101341;28;20261;-79
2022/07/16 12:53:57;;;;;;;10.60;10.30;;;27.30;99.90;;;;;;5100587;28;20236;-79
2022/07/16 12:59:11;;;;;;;10.48;10.18;;;26.80;99.90;;;;;;5100749;28;20237;-79
2022/07/16 13:01:39;;;;;;;10.88;10.57;;;26.00;99.90;;;;;;5098328;28;20221;-77
2022/07/16 13:04:08;;;;;;;10.50;10.20;;;25.30;99.90;;;;;;5099468;28;20320;-78
2022/07/16 13:06:37;;;;;;;10.45;10.15;;;25.40;99.90;;;;;;5099590;28;20278;-78
2022/07/16 13:09:06;;;;;;;10.40;10.10;;;25.70;99.90;;;;;;5099843;28;20236;-79
2022/07/16 13:11:35;;;;;;;10.48;10.18;;;25.40;99.90;;;;;;5100005;28;20236;-78
2022/07/16 13:14:04;;;;;;;10.40;10.10;;;25.20;99.90;;;;;;5097042;28;20233;-77
2022/07/16 13:16:31;;;;;;;10.50;10.20;;;25.30;99.90;;;;;;5096805;28;20234;-77
2022/07/16 13:19:00;;;;;;;10.40;10.10;;;26.00;99.90;;;;;;5097581;28;20232;-77
2022/07/16 13:21:30;;;;;;;10.55;10.25;;;26.80;99.90;;;;;;5096949;28;20240;-78
2022/07/16 13:24:04;;;;;;;10.05;9.75;;;27.60;99.90;;;;;;5097420;28;20230;-78
2022/07/16 13:26:33;;;;;;;10.20;9.90;;;27.70;99.90;;;;;;5096868;28;20739;-78
2022/07/16 13:29:01;;;;;;;10.30;10.00;;;27.60;99.90;;;;;;5097392;28;20296;-77
2022/07/16 13:31:29;;;;;;;10.05;9.75;;;27.20;99.90;;;;;;5096713;28;20243;-77
2022/07/16 13:33:56;;;;;;;10.23;9.93;;;26.80;99.90;;;;;;5097071;28;20285;-77
2022/07/16 13:36:24;;;;;;;10.50;10.20;;;26.50;99.90;;;;;;5096417;28;20233;-78
2022/07/16 13:38:53;;;;;;;10.20;9.90;;;26.10;99.90;;;;;;5097237;28;20316;-78
2022/07/16 13:41:21;;;;;;;10.52;10.23;;;25.70;99.90;;;;;;5099422;28;20233;-79
2022/07/16 13:43:48;;;;;;;10.50;10.20;;;25.50;99.90;;;;;;5098985;28;20286;-78
2022/07/16 13:46:17;;;;;;;10.50;10.20;;;26.10;99.90;;;;;;5098940;28;20805;-78
2022/07/16 13:48:46;;;;;;;10.45;10.15;;;26.80;99.90;;;;;;5099379;28;20324;-78
2022/07/16 13:51:14;;;;;;;10.23;9.93;;;27.20;99.90;;;;;;5100233;28;20297;-78
2022/07/16 13:53:41;;;;;;;10.48;10.18;;;27.70;99.90;;;;;;5097557;28;20354;-78